createdAt,value
2022-10-26T00:01:38.644Z,87.46
2022-10-26T00:04:07.940Z,87.39
2022-10-26T00:06:36.882Z,87.30
2022-10-26T00:09:06.133Z,87.33
2022-10-26T00:11:35.071Z,87.05
2022-10-26T00:14:04.255Z,86.81
2022-10-26T00:16:33.209Z,87.21
2022-10-26T00:19:04.069Z,87.53
2022-10-26T00:21:32.773Z,87.51
2022-10-26T00:24:02.019Z,87.49
2022-10-26T00:26:31.019Z,86.81
2022-10-26T00:29:00.254Z,87.36
2022-10-26T00:31:29.234Z,86.83
2022-10-26T00:33:59.193Z,86.99
2022-10-26T00:36:29.771Z,87.36
2022-10-26T00:38:59.483Z,87.22
2022-10-26T00:41:30.956Z,87.29
2022-10-26T00:44:00.699Z,87.31
2022-10-26T00:46:34.024Z,87.57
2022-10-26T00:49:06.398Z,87.56
2022-10-26T00:51:42.760Z,87.35
2022-10-26T00:54:18.353Z,87.29
2022-10-26T00:56:48.264Z,87.55
2022-10-26T00:59:18.888Z,87.70
2022-10-26T01:01:49.805Z,87.91
2022-10-26T01:04:19.610Z,88.40
2022-10-26T01:06:51.016Z,88.46
2022-10-26T01:09:22.819Z,87.98
2022-10-26T01:11:51.740Z,87.96
2022-10-26T01:14:22.801Z,88.68
2022-10-26T01:20:02.062Z,89.44
2022-10-26T01:22:41.437Z,89.27
2022-10-26T01:25:25.791Z,90.26
2022-10-26T01:27:55.255Z,89.88
2022-10-26T01:30:33.224Z,90.06
2022-10-26T01:33:25.159Z,89.88
2022-10-26T01:36:03.747Z,89.17
2022-10-26T01:38:41.769Z,90.22
2022-10-26T01:41:16.638Z,89.43
2022-10-26T01:43:51.303Z,89.56
2022-10-26T01:46:25.394Z,89.53
2022-10-26T01:48:58.911Z,89.33
2022-10-26T01:51:29.902Z,89.12
2022-10-26T01:54:00.249Z,88.69
2022-10-26T01:56:33.160Z,88.54
2022-10-26T01:59:24.011Z,88.84
2022-10-26T02:02:34.893Z,88.63
2022-10-26T02:05:26.735Z,88.67
2022-10-26T02:08:07.559Z,88.72
2022-10-26T02:10:46.298Z,88.91
2022-10-26T02:13:22.663Z,88.62
2022-10-26T02:15:57.848Z,88.25
2022-10-26T02:18:32.461Z,88.59
2022-10-26T02:21:07.287Z,88.51
2022-10-26T02:23:40.872Z,88.90
2022-10-26T02:26:12.296Z,89.02
2022-10-26T02:28:46.087Z,88.92
2022-10-26T02:31:16.955Z,89.23
2022-10-26T02:33:50.276Z,89.04
2022-10-26T02:36:27.005Z,89.39
2022-10-26T02:38:58.269Z,89.25
2022-10-26T02:41:29.720Z,89.49
2022-10-26T02:44:05.587Z,89.29
2022-10-26T02:46:35.046Z,89.41
2022-10-26T02:49:04.342Z,89.03
2022-10-26T02:51:41.120Z,89.88
2022-10-26T02:54:17.543Z,90.10
2022-10-26T02:56:52.718Z,90.29
2022-10-26T02:59:25.665Z,90.05
2022-10-26T03:01:55.989Z,90.46
2022-10-26T03:04:31.003Z,90.67
2022-10-26T03:07:01.369Z,90.54
2022-10-26T03:09:30.823Z,90.76
2022-10-26T03:11:59.795Z,90.70
2022-10-26T03:14:29.056Z,90.14
2022-10-26T03:16:57.983Z,90.53
2022-10-26T03:19:27.208Z,90.81
2022-10-26T03:21:56.134Z,90.56
2022-10-26T03:24:26.731Z,89.81
2022-10-26T03:26:58.262Z,89.98
2022-10-26T03:29:30.353Z,89.92
2022-10-26T03:31:59.293Z,89.63
2022-10-26T03:34:28.424Z,89.76
2022-10-26T03:36:57.379Z,89.56
2022-10-26T03:39:27.897Z,89.45
2022-10-26T03:41:57.019Z,90.04
2022-10-26T03:44:26.175Z,90.38
2022-10-26T03:46:55.223Z,90.32
2022-10-26T03:49:24.426Z,90.82
2022-10-26T03:51:53.366Z,90.42
2022-10-26T03:54:22.508Z,90.13
2022-10-26T03:56:55.216Z,90.69
2022-10-26T03:59:24.655Z,90.60
2022-10-26T04:01:56.802Z,90.60
2022-10-26T04:04:27.302Z,91.11
2022-10-26T04:06:56.318Z,91.05
2022-10-26T04:09:25.543Z,91.11
2022-10-26T04:11:55.863Z,91.33
2022-10-26T04:14:25.075Z,90.76
2022-10-26T04:16:54.013Z,90.62
2022-10-26T04:19:23.561Z,89.91
2022-10-26T04:21:53.161Z,90.28
2022-10-26T04:24:22.278Z,90.37
2022-10-26T04:26:51.220Z,90.18
2022-10-26T04:29:21.777Z,90.17
2022-10-26T04:31:50.703Z,90.24
2022-10-26T04:34:19.885Z,90.22
2022-10-26T04:36:48.811Z,90.75
2022-10-26T04:39:17.975Z,91.28
2022-10-26T04:41:46.964Z,90.94
2022-10-26T04:44:16.118Z,92.01
2022-10-26T04:46:46.472Z,91.79
2022-10-26T04:49:15.691Z,91.82
2022-10-26T04:51:44.647Z,91.21
2022-10-26T04:54:13.845Z,90.86
2022-10-26T04:56:42.874Z,91.25
2022-10-26T04:59:12.457Z,90.82
2022-10-26T05:01:41.521Z,91.01
2022-10-26T05:04:12.213Z,91.15
2022-10-26T05:06:41.978Z,90.54
2022-10-26T05:09:11.167Z,91.01
2022-10-26T05:11:40.209Z,90.59
2022-10-26T05:14:10.260Z,90.89
2022-10-26T05:16:39.390Z,91.07
2022-10-26T05:19:08.635Z,90.50
2022-10-26T05:21:39.338Z,90.72
2022-10-26T05:24:11.726Z,90.56
2022-10-26T05:26:41.608Z,89.98
2022-10-26T05:29:10.965Z,90.29
2022-10-26T05:31:40.049Z,90.01
2022-10-26T05:34:09.849Z,90.12
2022-10-26T05:36:40.438Z,89.72
2022-10-26T05:39:09.747Z,89.66
2022-10-26T05:41:38.791Z,89.98
2022-10-26T05:44:07.991Z,89.34
2022-10-26T05:46:37.041Z,89.09
2022-10-26T05:49:06.295Z,89.07
2022-10-26T05:51:37.257Z,89.32
2022-10-26T05:54:11.576Z,89.28
2022-10-26T05:56:43.834Z,89.08
2022-10-26T05:59:13.980Z,88.70
2022-10-26T06:02:05.287Z,89.23
2022-10-26T06:04:39.749Z,89.05
2022-10-26T06:07:15.389Z,88.45
2022-10-26T06:09:47.624Z,88.77
2022-10-26T06:12:19.600Z,88.49
2022-10-26T06:14:49.899Z,88.60
2022-10-26T06:17:40.935Z,88.73
2022-10-26T06:20:29.064Z,88.81
2022-10-26T06:23:10.655Z,88.04
2022-10-26T06:25:53.797Z,88.41
2022-10-26T06:28:35.427Z,88.40
2022-10-26T06:31:04.730Z,88.37
2022-10-26T06:33:33.946Z,88.26
2022-10-26T06:36:16.739Z,88.25
2022-10-26T06:38:48.599Z,88.08
2022-10-26T06:41:20.246Z,88.27
2022-10-26T06:43:50.228Z,88.41
2022-10-26T06:46:27.135Z,88.33
2022-10-26T06:49:01.768Z,88.06
2022-10-26T06:51:37.425Z,88.12
2022-10-26T06:54:14.407Z,88.21
2022-10-26T06:56:46.537Z,88.04
2022-10-26T06:59:23.395Z,87.88
2022-10-26T07:01:52.907Z,88.02
2022-10-26T07:04:22.368Z,87.56
2022-10-26T07:06:51.585Z,87.66
2022-10-26T07:09:20.583Z,87.55
2022-10-26T07:11:51.135Z,87.42
2022-10-26T07:14:20.169Z,87.53
2022-10-26T07:16:49.412Z,87.19
2022-10-26T07:19:18.642Z,87.08
2022-10-26T07:21:47.895Z,87.23
2022-10-26T07:24:16.889Z,86.79
2022-10-26T07:26:46.064Z,86.51
2022-10-26T07:29:18.104Z,86.59
2022-10-26T07:31:47.349Z,86.21
2022-10-26T07:34:16.302Z,85.79
2022-10-26T07:36:45.558Z,86.08
2022-10-26T07:39:15.337Z,85.80
2022-10-26T07:41:46.063Z,85.50
2022-10-26T07:44:16.433Z,85.16
2022-10-26T07:46:45.692Z,84.70
2022-10-26T07:49:17.596Z,84.77
2022-10-26T07:51:48.736Z,83.78
2022-10-26T07:54:17.772Z,83.94
2022-10-26T07:56:49.868Z,83.97
2022-10-26T07:59:20.245Z,83.12
2022-10-26T08:01:49.330Z,82.63
2022-10-26T08:04:18.441Z,82.34
2022-10-26T08:06:48.815Z,82.92
2022-10-26T08:09:17.616Z,83.12
2022-10-26T08:11:46.776Z,82.60
2022-10-26T08:14:15.973Z,82.51
2022-10-26T08:16:46.600Z,82.28
2022-10-26T08:19:15.615Z,82.50
2022-10-26T08:21:44.814Z,82.26
2022-10-26T08:24:13.853Z,81.76
2022-10-26T08:26:43.334Z,81.49
2022-10-26T08:29:12.419Z,79.80
2022-10-26T08:31:41.907Z,79.95
2022-10-26T08:34:12.458Z,78.80
2022-10-26T08:36:41.973Z,78.81
2022-10-26T08:39:11.092Z,78.86
2022-10-26T08:41:43.953Z,78.80
2022-10-26T08:44:26.287Z,78.72
2022-10-26T08:46:59.848Z,78.61
2022-10-26T08:49:38.016Z,78.17
2022-10-26T08:52:12.551Z,78.82
2022-10-26T08:54:45.316Z,78.30
2022-10-26T08:57:22.053Z,79.54
2022-10-26T08:59:56.497Z,78.04
2022-10-26T09:02:25.928Z,78.99
2022-10-26T09:04:59.247Z,78.13
2022-10-26T09:07:41.638Z,79.05
2022-10-26T09:10:25.809Z,78.47
2022-10-26T09:13:04.110Z,78.66
2022-10-26T09:15:41.607Z,78.35
2022-10-26T09:18:23.078Z,78.28
2022-10-26T09:21:04.877Z,78.35
2022-10-26T09:23:48.449Z,77.96
2022-10-26T09:26:28.072Z,78.08
2022-10-26T09:29:00.174Z,77.15
2022-10-26T09:31:29.617Z,77.17
2022-10-26T09:34:01.894Z,77.55
2022-10-26T09:36:32.409Z,77.14
2022-10-26T09:39:11.670Z,77.28
2022-10-26T09:41:45.030Z,76.85
2022-10-26T09:44:20.307Z,76.42
2022-10-26T09:46:55.029Z,75.94
2022-10-26T09:49:31.286Z,75.48
2022-10-26T09:52:01.830Z,74.60
2022-10-26T09:54:31.155Z,73.58
2022-10-26T09:57:02.390Z,73.69
2022-10-26T09:59:34.932Z,73.77
2022-10-26T10:02:33.048Z,73.44
2022-10-26T10:05:02.825Z,73.71
2022-10-26T10:07:37.737Z,72.79
2022-10-26T10:10:16.071Z,73.42
2022-10-26T10:12:45.937Z,72.82
2022-10-26T10:15:24.043Z,72.46
2022-10-26T10:17:56.290Z,72.02
2022-10-26T10:20:28.714Z,71.67
2022-10-26T10:23:01.326Z,71.99
2022-10-26T10:25:40.008Z,71.90
2022-10-26T10:28:23.160Z,70.85
2022-10-26T10:30:57.315Z,71.58
2022-10-26T10:33:35.672Z,70.58
2022-10-26T10:36:08.463Z,70.42
2022-10-26T10:38:45.060Z,69.76
2022-10-26T10:41:23.064Z,67.75
2022-10-26T10:43:56.356Z,66.96
2022-10-26T10:46:28.483Z,67.59
2022-10-26T10:49:04.737Z,68.20
2022-10-26T10:51:40.932Z,67.66
2022-10-26T10:54:24.294Z,66.58
2022-10-26T10:56:56.707Z,66.77
2022-10-26T10:59:42.429Z,67.81
2022-10-26T11:02:46.123Z,68.20
2022-10-26T11:05:37.672Z,66.01
2022-10-26T11:08:12.208Z,67.94
2022-10-26T11:10:48.427Z,69.01
2022-10-26T11:13:22.260Z,67.13
2022-10-26T11:16:04.836Z,68.02
2022-10-26T11:18:38.163Z,67.14
2022-10-26T11:21:16.884Z,68.17
2022-10-26T11:23:51.392Z,67.57
2022-10-26T11:26:28.491Z,67.14
2022-10-26T11:29:02.693Z,68.84
2022-10-26T11:31:37.908Z,68.85
2022-10-26T11:34:22.612Z,68.99
2022-10-26T11:36:59.094Z,69.30
2022-10-26T11:39:38.785Z,69.14
2022-10-26T11:42:21.202Z,69.45
2022-10-26T11:44:58.277Z,69.75
2022-10-26T11:47:36.676Z,69.58
2022-10-26T11:50:17.497Z,69.49
2022-10-26T11:52:51.131Z,69.10
2022-10-26T11:55:22.166Z,69.62
2022-10-26T11:57:55.135Z,69.67
2022-10-26T12:00:24.828Z,69.85
2022-10-26T12:02:59.170Z,69.52
2022-10-26T12:05:37.319Z,69.66
2022-10-26T12:08:12.334Z,69.61
2022-10-26T12:10:49.667Z,70.29
2022-10-26T12:13:28.180Z,70.42
2022-10-26T12:16:03.979Z,70.20
2022-10-26T12:18:55.176Z,69.94
2022-10-26T12:21:29.544Z,69.98
2022-10-26T12:24:00.949Z,69.88
2022-10-26T12:26:55.033Z,69.90
2022-10-26T12:29:45.879Z,70.13
2022-10-26T12:32:44.752Z,69.77
2022-10-26T12:35:44.698Z,69.20
2022-10-26T12:38:43.476Z,68.41
2022-10-26T12:41:26.500Z,68.41
2022-10-26T12:43:59.965Z,68.76
2022-10-26T12:46:45.649Z,67.59
2022-10-26T12:49:57.270Z,68.32
2022-10-26T12:53:01.395Z,68.83
2022-10-26T12:55:51.451Z,69.31
2022-10-26T12:58:47.792Z,69.33
2022-10-26T13:01:42.439Z,68.24
2022-10-26T13:04:27.048Z,69.44
2022-10-26T13:07:20.373Z,68.96
2022-10-26T13:09:59.004Z,69.45
2022-10-26T13:12:31.020Z,69.57
2022-10-26T13:15:04.580Z,69.47
2022-10-26T13:20:19.649Z,69.46
2022-10-26T13:22:50.068Z,69.39
2022-10-26T13:25:26.044Z,69.45
2022-10-26T13:28:07.217Z,69.42
2022-10-26T13:30:49.733Z,69.66
2022-10-26T13:33:34.968Z,70.01
2022-10-26T13:36:16.103Z,69.93
2022-10-26T13:38:48.413Z,69.96
2022-10-26T13:41:28.361Z,70.10
2022-10-26T13:43:58.993Z,70.29
2022-10-26T13:46:29.933Z,70.36
2022-10-26T13:49:08.982Z,70.56
2022-10-26T13:51:44.691Z,70.65
2022-10-26T13:54:24.807Z,70.76
2022-10-26T13:57:14.197Z,70.99
2022-10-26T13:59:46.178Z,71.24
2022-10-26T14:02:21.189Z,71.21
2022-10-26T14:04:53.585Z,71.29
2022-10-26T14:07:27.637Z,71.30
2022-10-26T14:09:58.875Z,71.59
2022-10-26T14:12:29.633Z,71.79
2022-10-26T14:15:06.732Z,71.82
2022-10-26T14:17:36.182Z,72.06
2022-10-26T14:20:06.828Z,72.08
2022-10-26T14:22:37.338Z,72.25
2022-10-26T14:25:26.628Z,71.83
2022-10-26T14:28:21.436Z,72.17
2022-10-26T14:30:51.306Z,72.17
2022-10-26T14:33:21.586Z,72.28
2022-10-26T14:35:51.461Z,72.31
2022-10-26T14:38:26.890Z,72.26
2022-10-26T14:40:58.524Z,72.67
2022-10-26T14:43:28.248Z,72.81
2022-10-26T14:45:57.910Z,72.87
2022-10-26T14:48:31.205Z,72.84
2022-10-26T14:51:02.065Z,73.10
2022-10-26T14:53:36.935Z,73.23
2022-10-26T14:56:18.201Z,73.20
2022-10-26T14:58:47.258Z,73.06
2022-10-26T15:01:31.941Z,73.09
2022-10-26T15:04:06.103Z,73.15
2022-10-26T15:06:42.951Z,73.05
2022-10-26T15:09:38.588Z,72.91
2022-10-26T15:12:19.394Z,73.05
2022-10-26T15:14:49.055Z,72.37
2022-10-26T15:17:23.864Z,72.47
2022-10-26T15:19:54.772Z,72.40
2022-10-26T15:22:31.821Z,72.44
2022-10-26T15:25:06.118Z,72.38
2022-10-26T15:27:35.391Z,72.01
2022-10-26T15:30:19.647Z,71.60
2022-10-26T15:32:49.564Z,71.79
2022-10-26T15:35:30.452Z,71.78
2022-10-26T15:38:01.655Z,71.85
2022-10-26T15:40:33.345Z,72.06
2022-10-26T15:43:03.846Z,72.50
2022-10-26T15:45:37.390Z,72.49
2022-10-26T15:48:24.051Z,72.48
2022-10-26T15:50:53.013Z,72.77
2022-10-26T15:53:24.279Z,72.97
2022-10-26T15:55:56.456Z,73.06
2022-10-26T15:58:25.891Z,73.08
2022-10-26T16:00:54.982Z,73.07
2022-10-26T16:03:25.856Z,73.26
2022-10-26T16:05:58.648Z,73.48
2022-10-26T16:08:30.409Z,73.65
2022-10-26T16:11:00.904Z,73.97
2022-10-26T16:13:30.668Z,74.24
2022-10-26T16:15:59.801Z,74.51
2022-10-26T16:18:29.020Z,74.75
2022-10-26T16:20:57.972Z,74.97
2022-10-26T16:23:27.192Z,74.88
2022-10-26T16:25:56.145Z,74.94
2022-10-26T16:28:26.681Z,75.17
2022-10-26T16:31:00.845Z,75.30
2022-10-26T16:33:30.347Z,75.26
2022-10-26T16:35:59.776Z,75.35
2022-10-26T16:38:31.570Z,75.59
2022-10-26T16:41:04.461Z,75.60
2022-10-26T16:43:37.434Z,75.58
2022-10-26T16:46:11.022Z,75.93
2022-10-26T16:48:41.759Z,75.73
2022-10-26T16:51:12.244Z,75.89
2022-10-26T16:53:41.597Z,76.23
2022-10-26T16:56:12.695Z,76.25
2022-10-26T16:58:43.403Z,76.45
2022-10-26T17:01:13.765Z,76.55
2022-10-26T17:03:43.013Z,76.62
2022-10-26T17:06:12.767Z,76.69
2022-10-26T17:08:42.291Z,76.90
2022-10-26T17:11:13.425Z,76.95
2022-10-26T17:13:44.538Z,77.02
2022-10-26T17:16:15.924Z,76.87
2022-10-26T17:18:47.170Z,76.78
2022-10-26T17:21:19.126Z,77.14
2022-10-26T17:23:48.323Z,77.17
2022-10-26T17:26:17.480Z,77.28
2022-10-26T17:28:51.601Z,77.32
2022-10-26T17:31:21.020Z,77.34
2022-10-26T17:33:51.018Z,77.18
2022-10-26T17:36:21.434Z,77.28
2022-10-26T17:38:52.796Z,77.39
2022-10-26T17:41:23.387Z,77.16
2022-10-26T17:43:54.436Z,77.23
2022-10-26T17:46:25.919Z,77.17
2022-10-26T17:48:58.898Z,77.19
2022-10-26T17:51:29.533Z,77.24
2022-10-26T17:54:00.127Z,77.41
2022-10-26T17:56:30.628Z,77.59
2022-10-26T17:59:02.811Z,77.53
2022-10-26T18:01:32.685Z,77.38
2022-10-26T18:04:02.305Z,77.77
2022-10-26T18:06:31.387Z,77.80
2022-10-26T18:09:00.745Z,78.28
2022-10-26T18:14:05.163Z,78.42
2022-10-26T18:16:34.131Z,78.35
2022-10-26T18:19:05.242Z,77.97
2022-10-26T18:21:37.484Z,77.95
2022-10-26T18:24:07.693Z,78.04
2022-10-26T18:26:37.445Z,78.27
2022-10-26T18:29:08.162Z,78.19
2022-10-26T18:31:37.123Z,78.13
2022-10-26T18:34:07.628Z,78.55
2022-10-26T18:39:07.334Z,79.32
2022-10-26T18:41:36.308Z,80.14
2022-10-26T18:44:07.195Z,80.44
2022-10-26T18:46:41.016Z,80.89
2022-10-26T18:49:11.872Z,80.89
2022-10-26T18:51:40.820Z,81.01
2022-10-26T18:54:09.981Z,80.70
2022-10-26T18:56:39.127Z,80.32
2022-10-26T18:59:09.928Z,80.31
2022-10-26T19:01:42.185Z,80.27
2022-10-26T19:04:13.908Z,80.72
2022-10-26T19:06:47.431Z,80.65
2022-10-26T19:09:17.618Z,80.79
2022-10-26T19:11:46.914Z,81.33
2022-10-26T19:14:19.018Z,81.35
2022-10-26T19:16:58.757Z,83.51
2022-10-26T19:19:28.066Z,83.28
2022-10-26T19:22:05.202Z,83.42
2022-10-26T19:24:36.835Z,83.10
2022-10-26T19:27:12.201Z,83.34
2022-10-26T19:29:42.756Z,83.53
2022-10-26T19:32:12.364Z,82.39
2022-10-26T19:34:41.558Z,82.27
2022-10-26T19:37:10.536Z,82.37
2022-10-26T19:39:39.741Z,82.43
2022-10-26T19:42:08.959Z,82.22
2022-10-26T19:44:38.129Z,82.81
2022-10-26T19:47:08.596Z,82.66
2022-10-26T19:49:37.766Z,82.98
2022-10-26T19:52:06.958Z,83.10
2022-10-26T19:54:36.147Z,82.39
2022-10-26T19:57:05.222Z,82.54
2022-10-26T19:59:34.435Z,82.50
2022-10-26T20:02:03.432Z,82.62
2022-10-26T20:04:34.053Z,82.41
2022-10-26T20:07:03.074Z,82.61
2022-10-26T20:09:32.788Z,82.15
2022-10-26T20:12:01.812Z,82.49
2022-10-26T20:14:31.094Z,81.86
2022-10-26T20:17:00.093Z,82.05
2022-10-26T20:19:29.270Z,82.26
2022-10-26T20:21:59.759Z,82.78
2022-10-26T20:24:28.992Z,82.78
2022-10-26T20:26:58.620Z,83.27
2022-10-26T20:29:27.803Z,83.50
2022-10-26T20:31:58.355Z,83.31
2022-10-26T20:37:04.019Z,83.48
2022-10-26T20:39:33.728Z,83.13
2022-10-26T20:42:03.304Z,83.40
2022-10-26T20:44:36.379Z,83.06
2022-10-26T20:47:05.917Z,83.15
2022-10-26T20:49:35.720Z,83.79
2022-10-26T20:52:26.784Z,84.50
2022-10-26T20:55:02.145Z,83.74
2022-10-26T20:57:33.685Z,84.01
2022-10-26T21:00:05.963Z,83.85
2022-10-26T21:02:35.095Z,83.65
2022-10-26T21:05:04.934Z,84.02
2022-10-26T21:07:35.287Z,83.72
2022-10-26T21:10:04.656Z,83.90
2022-10-26T21:12:35.879Z,83.78
2022-10-26T21:15:05.784Z,83.27
2022-10-26T21:17:35.245Z,83.56
2022-10-26T21:20:04.524Z,83.77
2022-10-26T21:22:34.856Z,83.32
2022-10-26T21:25:04.041Z,83.80
2022-10-26T21:27:33.005Z,83.75
2022-10-26T21:30:02.153Z,83.94
2022-10-26T21:32:31.131Z,83.72
2022-10-26T21:35:00.264Z,83.94
2022-10-26T21:37:29.236Z,83.44
2022-10-26T21:39:59.893Z,83.46
2022-10-26T21:42:28.854Z,83.63
2022-10-26T21:44:57.997Z,83.72
2022-10-26T21:47:26.948Z,83.63
2022-10-26T21:49:56.114Z,83.42
2022-10-26T21:52:25.092Z,83.71
2022-10-26T21:54:54.249Z,83.92
2022-10-26T21:57:24.559Z,84.08
2022-10-26T21:59:53.712Z,84.45
2022-10-26T22:02:22.762Z,84.35
2022-10-26T22:04:52.940Z,84.48
2022-10-26T22:07:22.313Z,85.12
2022-10-26T22:10:07.540Z,85.32
2022-10-26T22:12:38.179Z,85.81
2022-10-26T22:15:08.429Z,85.71
2022-10-26T22:17:39.797Z,85.45
2022-10-26T22:20:10.902Z,85.24
2022-10-26T22:22:40.091Z,85.61
2022-10-26T22:25:09.780Z,85.31
2022-10-26T22:27:40.135Z,85.27
2022-10-26T22:30:10.707Z,85.64
2022-10-26T22:32:39.695Z,86.00
2022-10-26T22:35:24.730Z,85.42
2022-10-26T22:37:58.516Z,85.38
2022-10-26T22:40:27.749Z,85.41
2022-10-26T22:42:58.126Z,85.47
2022-10-26T22:45:27.302Z,85.51
2022-10-26T22:47:56.478Z,85.12
2022-10-26T22:50:26.158Z,85.20
2022-10-26T22:52:55.122Z,85.35
2022-10-26T22:55:24.308Z,85.44
2022-10-26T22:57:54.748Z,85.37
2022-10-26T23:00:25.752Z,85.29
2022-10-26T23:02:54.695Z,85.17
2022-10-26T23:05:23.895Z,85.50
2022-10-26T23:07:53.202Z,85.26
2022-10-26T23:10:22.787Z,85.21
2022-10-26T23:12:52.152Z,84.89
2022-10-26T23:15:21.388Z,85.07
2022-10-26T23:17:51.987Z,85.03
2022-10-26T23:20:21.365Z,84.84
2022-10-26T23:22:50.562Z,85.39
2022-10-26T23:25:19.955Z,85.38
2022-10-26T23:27:49.018Z,85.26
2022-10-26T23:30:18.305Z,85.51
2022-10-26T23:32:47.281Z,85.64
2022-10-26T23:35:17.956Z,85.59
2022-10-26T23:37:46.904Z,85.73
2022-10-26T23:40:16.273Z,85.47
2022-10-26T23:42:45.237Z,85.44
2022-10-26T23:45:14.476Z,85.43
2022-10-26T23:47:43.464Z,85.22
2022-10-26T23:50:12.643Z,84.97
2022-10-26T23:52:43.012Z,85.19
2022-10-26T23:55:12.844Z,84.88
2022-10-26T23:57:41.901Z,85.43
